createdAt,value
2023-01-21T00:00:57.962Z,35.25
2023-01-21T00:03:25.769Z,35.60
2023-01-21T00:05:53.381Z,36.38
2023-01-21T00:08:22.249Z,37.22
2023-01-21T00:10:49.753Z,37.50
2023-01-21T00:13:17.456Z,32.90
2023-01-21T00:15:45.074Z,34.60
2023-01-21T00:18:12.596Z,37.22
2023-01-21T00:20:40.125Z,31.60
2023-01-21T00:23:07.631Z,32.47
2023-01-21T00:25:36.455Z,31.52
2023-01-21T00:28:04.055Z,41.63
2023-01-21T00:30:31.627Z,38.08
2023-01-21T00:32:59.133Z,37.95
2023-01-21T00:35:26.670Z,42.33
2023-01-21T00:37:54.226Z,32.88
2023-01-21T00:40:22.174Z,38.45
2023-01-21T00:42:51.130Z,33.85
2023-01-21T00:45:18.587Z,35.60
2023-01-21T00:47:46.073Z,33.45
2023-01-21T00:50:13.587Z,33.60
2023-01-21T00:52:41.041Z,34.40
2023-01-21T00:55:09.178Z,34.45
2023-01-21T00:57:36.686Z,33.88
2023-01-21T01:00:10.927Z,38.35
2023-01-21T01:02:38.483Z,36.90
2023-01-21T01:05:08.215Z,32.88
2023-01-21T01:07:35.961Z,32.35
2023-01-21T01:10:03.449Z,31.90
2023-01-21T01:12:31.047Z,35.13
2023-01-21T01:15:00.828Z,36.15
2023-01-21T01:17:29.817Z,33.40
2023-01-21T01:19:58.058Z,39.58
2023-01-21T01:22:25.578Z,37.90
2023-01-21T01:24:53.283Z,34.90
2023-01-21T01:27:20.784Z,38.75
2023-01-21T01:29:49.662Z,37.47
2023-01-21T01:32:17.181Z,35.60
2023-01-21T01:34:46.544Z,45.65
2023-01-21T01:37:14.176Z,37.35
2023-01-21T01:39:41.665Z,39.65
2023-01-21T01:42:14.774Z,34.80
2023-01-21T01:45:00.255Z,36.25
2023-01-21T01:47:33.249Z,34.95
2023-01-21T01:50:03.420Z,37.33
2023-01-21T01:52:31.605Z,35.60
2023-01-21T01:55:02.201Z,40.53
2023-01-21T01:57:35.415Z,37.65
2023-01-21T02:00:04.955Z,33.72
2023-01-21T02:02:32.870Z,39.88
2023-01-21T02:05:05.975Z,32.53
2023-01-21T02:07:39.321Z,37.45
2023-01-21T02:10:08.232Z,37.20
2023-01-21T02:12:38.561Z,38.80
2023-01-21T02:15:07.519Z,40.83
2023-01-21T02:17:47.722Z,36.40
2023-01-21T02:21:03.456Z,40.35
2023-01-21T02:23:48.333Z,35.85
2023-01-21T02:26:43.671Z,43.88
2023-01-21T02:29:33.403Z,34.83
2023-01-21T02:32:36.204Z,39.17
2023-01-21T02:35:14.868Z,37.55
2023-01-21T02:37:52.762Z,40.08
2023-01-21T02:40:26.459Z,40.78
2023-01-21T02:43:03.185Z,42.10
2023-01-21T02:45:39.106Z,37.30
2023-01-21T02:48:11.606Z,40.45
2023-01-21T02:50:45.487Z,38.90
2023-01-21T02:53:25.490Z,38.38
2023-01-21T02:55:53.194Z,41.58
2023-01-21T02:58:25.743Z,45.05
2023-01-21T03:01:05.506Z,43.15
2023-01-21T03:04:04.107Z,43.08
2023-01-21T03:06:45.987Z,37.95
2023-01-21T03:09:21.193Z,39.38
2023-01-21T03:11:58.113Z,43.95
2023-01-21T03:14:49.112Z,39.95
2023-01-21T03:17:23.495Z,39.55
2023-01-21T03:19:56.486Z,40.70
2023-01-21T03:22:30.457Z,36.97
2023-01-21T03:24:59.807Z,42.83
2023-01-21T03:27:31.222Z,37.92
2023-01-21T03:30:03.267Z,40.83
2023-01-21T03:32:33.837Z,36.75
2023-01-21T03:35:04.832Z,36.97
2023-01-21T03:37:41.652Z,40.90
2023-01-21T03:40:18.980Z,42.00
2023-01-21T03:42:50.301Z,40.65
2023-01-21T03:45:25.874Z,40.58
2023-01-21T03:50:30.923Z,39.05
2023-01-21T03:53:00.174Z,45.92
2023-01-21T03:55:27.780Z,46.85
2023-01-21T03:57:55.363Z,45.63
2023-01-21T04:00:23.296Z,44.53
2023-01-21T04:02:50.766Z,39.15
2023-01-21T04:05:18.286Z,45.58
2023-01-21T04:07:45.839Z,39.97
2023-01-21T04:10:14.976Z,43.60
2023-01-21T04:12:42.691Z,35.92
2023-01-21T04:15:11.330Z,41.13
2023-01-21T04:17:38.848Z,36.75
2023-01-21T04:20:08.634Z,40.70
2023-01-21T04:22:36.140Z,42.97
2023-01-21T04:25:05.119Z,38.92
2023-01-21T04:27:34.000Z,39.33
2023-01-21T04:30:01.540Z,46.55
2023-01-21T04:32:29.049Z,40.58
2023-01-21T04:34:56.523Z,38.83
2023-01-21T04:37:24.046Z,38.67
2023-01-21T04:39:51.580Z,41.58
2023-01-21T04:42:19.079Z,41.65
2023-01-21T04:44:48.096Z,42.47
2023-01-21T04:47:15.560Z,43.08
2023-01-21T04:49:43.017Z,40.38
2023-01-21T04:52:10.517Z,40.17
2023-01-21T04:54:37.995Z,38.83
2023-01-21T04:57:05.861Z,40.28
2023-01-21T04:59:33.680Z,40.85
2023-01-21T05:02:02.628Z,38.35
2023-01-21T05:04:30.379Z,37.08
2023-01-21T05:06:57.869Z,41.53
2023-01-21T05:09:25.494Z,40.70
2023-01-21T05:11:53.038Z,38.45
2023-01-21T05:14:20.596Z,40.58
2023-01-21T05:16:48.215Z,40.58
2023-01-21T05:19:17.082Z,36.55
2023-01-21T05:21:44.546Z,41.70
2023-01-21T05:24:12.177Z,38.97
2023-01-21T05:26:39.700Z,40.22
2023-01-21T05:29:07.222Z,35.30
2023-01-21T05:31:34.791Z,39.85
2023-01-21T05:34:02.330Z,37.42
2023-01-21T05:36:31.157Z,45.67
2023-01-21T05:38:58.696Z,40.35
2023-01-21T05:41:26.273Z,41.13
2023-01-21T05:43:53.773Z,48.33
2023-01-21T05:46:21.284Z,42.42
2023-01-21T05:48:48.870Z,38.30
2023-01-21T05:51:16.381Z,39.80
2023-01-21T05:53:45.256Z,44.17
2023-01-21T05:56:15.518Z,40.13
2023-01-21T05:58:43.021Z,37.47
2023-01-21T06:01:10.550Z,40.92
2023-01-21T06:03:38.316Z,40.00
2023-01-21T06:06:07.642Z,50.40
2023-01-21T06:08:35.175Z,44.60
2023-01-21T06:11:04.036Z,41.60
2023-01-21T06:13:31.625Z,37.63
2023-01-21T06:15:59.177Z,40.03
2023-01-21T06:18:26.816Z,47.72
2023-01-21T06:20:54.338Z,41.65
2023-01-21T06:23:21.800Z,41.58
2023-01-21T06:25:49.348Z,38.80
2023-01-21T06:28:18.221Z,42.80
2023-01-21T06:30:45.819Z,42.45
2023-01-21T06:33:13.328Z,43.45
2023-01-21T06:35:40.830Z,38.65
2023-01-21T06:38:08.338Z,46.83
2023-01-21T06:40:36.083Z,45.13
2023-01-21T06:43:03.593Z,48.60
2023-01-21T06:45:32.509Z,52.28
2023-01-21T06:48:00.020Z,50.17
2023-01-21T06:50:27.580Z,45.95
2023-01-21T06:52:55.048Z,42.47
2023-01-21T06:55:22.523Z,39.95
2023-01-21T06:57:50.018Z,44.40
2023-01-21T07:00:19.599Z,45.63
2023-01-21T07:02:48.697Z,41.28
2023-01-21T07:05:16.611Z,39.97
2023-01-21T07:07:44.265Z,38.95
2023-01-21T07:10:12.533Z,39.40
2023-01-21T07:12:40.024Z,42.92
2023-01-21T07:15:09.027Z,43.15
2023-01-21T07:17:36.666Z,44.63
2023-01-21T07:20:06.473Z,42.83
2023-01-21T07:22:34.787Z,48.20
2023-01-21T07:25:02.417Z,44.88
2023-01-21T07:27:29.929Z,48.67
2023-01-21T07:29:57.393Z,49.17
2023-01-21T07:32:25.039Z,43.45
2023-01-21T07:34:52.536Z,39.40
2023-01-21T07:37:21.391Z,43.88
2023-01-21T07:39:48.848Z,42.38
2023-01-21T07:42:16.622Z,43.95
2023-01-21T07:44:44.095Z,51.75
2023-01-21T07:47:11.567Z,47.95
2023-01-21T07:49:40.630Z,47.03
2023-01-21T07:52:08.132Z,46.85
2023-01-21T07:54:36.933Z,55.20
2023-01-21T07:57:04.511Z,69.40
2023-01-21T07:59:31.977Z,59.25
2023-01-21T08:01:59.647Z,49.58
2023-01-21T08:04:27.163Z,55.58
2023-01-21T08:06:56.890Z,125.22
2023-01-21T08:09:24.707Z,76.20
2023-01-21T08:11:53.562Z,48.60
2023-01-21T08:14:21.020Z,43.75
2023-01-21T08:16:48.476Z,42.63
2023-01-21T08:19:15.965Z,44.70
2023-01-21T08:21:43.416Z,46.13
2023-01-21T08:24:11.420Z,48.50
2023-01-21T08:26:39.066Z,46.60
2023-01-21T08:29:08.160Z,41.90
2023-01-21T08:31:35.699Z,45.45
2023-01-21T08:34:03.237Z,38.97
2023-01-21T08:36:30.747Z,41.55
2023-01-21T08:39:01.765Z,42.78
2023-01-21T08:41:29.328Z,44.50
2023-01-21T08:43:56.806Z,42.90
2023-01-21T08:46:25.773Z,43.00
2023-01-21T08:48:53.296Z,43.35
2023-01-21T08:51:20.823Z,40.40
2023-01-21T08:53:50.104Z,39.33
2023-01-21T08:56:18.559Z,45.05
2023-01-21T08:58:46.187Z,44.22
2023-01-21T09:01:16.144Z,43.17
2023-01-21T09:03:45.004Z,42.70
2023-01-21T09:06:12.865Z,40.97
2023-01-21T09:08:41.937Z,44.63
2023-01-21T09:11:10.023Z,44.05
2023-01-21T09:13:39.588Z,35.40
2023-01-21T09:16:10.633Z,36.28
2023-01-21T09:18:38.250Z,36.22
2023-01-21T09:21:08.028Z,35.80
2023-01-21T09:23:36.619Z,40.80
2023-01-21T09:26:06.044Z,46.83
2023-01-21T09:28:35.662Z,37.35
2023-01-21T09:31:05.432Z,37.15
2023-01-21T09:33:35.180Z,41.53
2023-01-21T09:36:05.247Z,40.45
2023-01-21T09:38:34.645Z,38.85
2023-01-21T09:41:13.915Z,40.78
2023-01-21T09:43:47.403Z,33.20
2023-01-21T09:46:23.678Z,41.35
2023-01-21T09:48:52.450Z,34.25
2023-01-21T09:51:26.950Z,43.28
2023-01-21T09:53:58.958Z,42.67
2023-01-21T09:56:35.407Z,44.47
2023-01-21T09:59:08.473Z,42.00
2023-01-21T10:01:39.553Z,43.58
2023-01-21T10:04:30.050Z,45.60
2023-01-21T10:07:04.948Z,39.97
2023-01-21T10:09:52.127Z,36.55
2023-01-21T10:12:44.021Z,33.97
2023-01-21T10:15:29.178Z,32.53
2023-01-21T10:17:59.151Z,39.60
2023-01-21T10:20:30.758Z,34.17
2023-01-21T10:23:02.497Z,35.55
2023-01-21T10:25:33.693Z,41.67
2023-01-21T10:28:06.153Z,38.25
2023-01-21T10:30:37.710Z,36.50
2023-01-21T10:33:08.025Z,35.60
2023-01-21T10:35:49.975Z,41.15
2023-01-21T10:38:24.748Z,40.75
2023-01-21T10:41:03.010Z,41.47
2023-01-21T10:43:37.142Z,41.33
2023-01-21T10:46:15.539Z,42.70
2023-01-21T10:48:48.447Z,46.15
2023-01-21T10:51:21.108Z,37.70
2023-01-21T10:53:56.931Z,38.70
2023-01-21T10:56:36.301Z,40.95
2023-01-21T10:59:08.113Z,39.17
2023-01-21T11:01:40.562Z,42.00
2023-01-21T11:04:15.270Z,40.40
2023-01-21T11:06:44.816Z,42.22
2023-01-21T11:09:15.796Z,38.28
2023-01-21T11:11:46.330Z,36.42
2023-01-21T11:14:13.834Z,46.53
2023-01-21T11:16:49.272Z,41.25
2023-01-21T11:19:30.240Z,40.65
2023-01-21T11:22:01.097Z,44.92
2023-01-21T11:24:32.644Z,41.95
2023-01-21T11:27:02.794Z,38.83
2023-01-21T11:29:40.966Z,43.45
2023-01-21T11:32:19.140Z,45.35
2023-01-21T11:34:48.343Z,43.58
2023-01-21T11:37:24.284Z,49.13
2023-01-21T11:39:55.096Z,44.35
2023-01-21T11:42:24.978Z,45.10
2023-01-21T11:44:54.390Z,37.90
2023-01-21T11:47:31.153Z,41.55
2023-01-21T11:50:04.835Z,48.53
2023-01-21T11:52:32.339Z,47.08
2023-01-21T11:55:04.071Z,39.22
2023-01-21T11:57:34.167Z,45.35
2023-01-21T12:00:09.107Z,43.83
2023-01-21T12:02:43.000Z,46.70
2023-01-21T12:05:16.795Z,42.60
2023-01-21T12:07:48.822Z,42.70
2023-01-21T12:10:27.165Z,46.05
2023-01-21T12:13:12.945Z,43.30
2023-01-21T12:15:53.547Z,42.45
2023-01-21T12:18:31.276Z,46.08
2023-01-21T12:21:06.005Z,47.25
2023-01-21T12:23:50.605Z,52.25
2023-01-21T12:26:30.493Z,46.33
2023-01-21T12:29:16.229Z,46.95
2023-01-21T12:31:49.570Z,45.97
2023-01-21T12:34:30.102Z,48.15
2023-01-21T12:37:02.618Z,43.20
2023-01-21T12:39:33.034Z,49.05
2023-01-21T12:42:10.589Z,44.55
2023-01-21T12:44:46.104Z,43.45
2023-01-21T12:49:58.184Z,42.42
2023-01-21T12:52:32.988Z,48.05
2023-01-21T12:55:07.556Z,45.40
2023-01-21T12:57:40.265Z,47.83
2023-01-21T13:00:19.520Z,47.75
2023-01-21T13:02:56.496Z,44.53
2023-01-21T13:05:30.612Z,43.53
2023-01-21T13:08:12.361Z,54.45
2023-01-21T13:10:42.692Z,51.20
2023-01-21T13:13:18.049Z,47.97
2023-01-21T13:15:50.594Z,50.97
2023-01-21T13:18:20.841Z,46.88
2023-01-21T13:20:54.226Z,46.42
2023-01-21T13:23:30.325Z,43.38
2023-01-21T13:26:04.113Z,47.45
2023-01-21T13:28:40.298Z,47.92
2023-01-21T13:31:17.954Z,37.95
2023-01-21T13:33:54.117Z,41.38
2023-01-21T13:36:42.232Z,37.72
2023-01-21T13:39:20.515Z,30.05
2023-01-21T13:42:07.341Z,35.28
2023-01-21T13:45:06.601Z,42.45
2023-01-21T13:48:01.911Z,37.08
2023-01-21T13:50:43.762Z,38.55
2023-01-21T13:53:31.171Z,41.30
2023-01-21T13:56:18.539Z,30.42
2023-01-21T13:58:52.710Z,31.13
2023-01-21T14:01:25.752Z,32.22
2023-01-21T14:04:02.096Z,38.88
2023-01-21T14:06:35.349Z,33.00
2023-01-21T14:09:07.685Z,30.38
2023-01-21T14:11:40.404Z,32.08
2023-01-21T14:14:47.577Z,34.60
2023-01-21T14:17:33.693Z,35.13
2023-01-21T14:20:27.551Z,31.33
2023-01-21T14:23:09.999Z,36.75
2023-01-21T14:25:52.234Z,34.28
2023-01-21T14:28:25.167Z,34.20
2023-01-21T14:31:02.451Z,32.88
2023-01-21T14:33:44.023Z,36.20
2023-01-21T14:36:18.343Z,32.22
2023-01-21T14:38:59.665Z,34.78
2023-01-21T14:42:02.821Z,35.17
2023-01-21T14:44:38.915Z,34.53
2023-01-21T14:47:15.796Z,31.63
2023-01-21T14:49:45.755Z,30.40
2023-01-21T14:52:16.539Z,31.45
2023-01-21T14:54:45.464Z,34.92
2023-01-21T14:57:27.194Z,55.42
2023-01-21T15:00:02.749Z,37.30
2023-01-21T15:02:32.051Z,43.63
2023-01-21T15:05:01.819Z,47.08
2023-01-21T15:07:36.197Z,37.33
2023-01-21T15:10:11.426Z,26.60
2023-01-21T15:12:40.280Z,23.17
2023-01-21T15:15:30.845Z,26.33
2023-01-21T15:18:06.347Z,34.25
2023-01-21T15:23:37.268Z,28.35
2023-01-21T15:26:20.957Z,29.13
2023-01-21T15:28:49.360Z,29.85
2023-01-21T15:31:46.882Z,31.65
2023-01-21T15:34:17.153Z,27.05
2023-01-21T15:36:46.937Z,29.02
2023-01-21T15:39:18.293Z,33.40
2023-01-21T15:41:59.010Z,28.35
2023-01-21T15:44:37.223Z,26.63
2023-01-21T15:47:19.972Z,24.48
2023-01-21T15:50:03.083Z,26.80
2023-01-21T15:52:41.491Z,25.20
2023-01-21T15:55:22.515Z,21.35
2023-01-21T15:57:55.156Z,22.80
2023-01-21T16:00:34.006Z,22.50
2023-01-21T16:03:19.000Z,20.85
2023-01-21T16:05:55.356Z,21.87
2023-01-21T16:08:34.426Z,27.85
2023-01-21T16:11:17.042Z,27.55
2023-01-21T16:13:54.450Z,20.10
2023-01-21T16:16:34.179Z,20.33
2023-01-21T16:19:04.993Z,20.05
2023-01-21T16:21:35.796Z,16.13
2023-01-21T16:24:09.017Z,19.42
2023-01-21T16:26:37.931Z,23.60
2023-01-21T16:29:13.023Z,17.70
2023-01-21T16:31:48.221Z,17.50
2023-01-21T16:34:24.157Z,14.30
2023-01-21T16:36:52.053Z,19.08
2023-01-21T16:39:20.610Z,16.20
2023-01-21T16:42:01.340Z,14.23
2023-01-21T16:44:29.694Z,17.40
2023-01-21T16:46:57.249Z,18.92
2023-01-21T16:49:24.982Z,17.92
2023-01-21T16:51:56.421Z,17.17
2023-01-21T16:54:29.477Z,15.68
2023-01-21T16:57:00.721Z,18.73
2023-01-21T16:59:30.617Z,15.40
2023-01-21T17:01:59.920Z,15.90
2023-01-21T17:04:29.424Z,15.45
2023-01-21T17:06:57.627Z,19.45
2023-01-21T17:09:32.486Z,16.35
2023-01-21T17:12:04.683Z,17.55
2023-01-21T17:14:33.884Z,18.60
2023-01-21T17:17:05.041Z,20.08
2023-01-21T17:19:36.410Z,20.42
2023-01-21T17:22:12.795Z,20.17
2023-01-21T17:24:43.995Z,21.27
2023-01-21T17:27:18.926Z,23.48
2023-01-21T17:29:46.436Z,40.83
2023-01-21T17:32:26.320Z,54.60
2023-01-21T17:35:06.498Z,34.70
2023-01-21T17:37:46.306Z,32.83
2023-01-21T17:40:28.920Z,21.50
2023-01-21T17:42:59.312Z,25.02
2023-01-21T17:45:31.429Z,23.98
2023-01-21T17:48:09.437Z,22.58
2023-01-21T17:50:39.208Z,24.50
2023-01-21T17:53:09.894Z,29.50
2023-01-21T17:55:39.389Z,27.13
2023-01-21T17:58:45.929Z,24.23
2023-01-21T18:01:14.262Z,27.77
2023-01-21T18:03:41.798Z,28.13
2023-01-21T18:06:17.239Z,29.60
2023-01-21T18:11:15.623Z,27.75
2023-01-21T18:13:44.528Z,28.25
2023-01-21T18:16:12.129Z,26.83
2023-01-21T18:18:39.968Z,31.13
2023-01-21T18:21:07.749Z,35.08
2023-01-21T18:23:35.259Z,29.75
2023-01-21T18:26:03.480Z,36.03
2023-01-21T18:28:32.160Z,30.23
2023-01-21T18:31:01.835Z,29.13
2023-01-21T18:33:30.820Z,28.30
2023-01-21T18:35:58.349Z,32.95
2023-01-21T18:38:27.889Z,29.55
2023-01-21T18:40:55.586Z,31.45
2023-01-21T18:43:23.290Z,32.92
2023-01-21T18:45:52.659Z,26.13
2023-01-21T18:48:28.569Z,31.98
2023-01-21T18:50:56.147Z,29.63
2023-01-21T18:53:23.741Z,31.00
2023-01-21T18:55:54.510Z,41.45
2023-01-21T18:58:22.180Z,36.03
2023-01-21T19:00:50.814Z,36.70
2023-01-21T19:03:18.554Z,27.83
2023-01-21T19:05:47.921Z,31.38
2023-01-21T19:08:18.528Z,25.52
2023-01-21T19:10:46.090Z,32.28
2023-01-21T19:13:13.709Z,31.33
2023-01-21T19:15:41.714Z,29.30
2023-01-21T19:18:11.836Z,34.05
2023-01-21T19:20:41.461Z,32.33
2023-01-21T19:23:15.447Z,34.20
2023-01-21T19:25:43.667Z,35.85
2023-01-21T19:28:12.734Z,31.58
2023-01-21T19:30:44.939Z,37.05
2023-01-21T19:33:13.574Z,37.75
2023-01-21T19:35:44.691Z,33.42
2023-01-21T19:38:17.199Z,31.38
2023-01-21T19:40:45.600Z,34.97
2023-01-21T19:43:14.693Z,34.70
2023-01-21T19:45:42.951Z,37.20
2023-01-21T19:48:12.993Z,40.38
2023-01-21T19:50:40.853Z,34.30
2023-01-21T19:53:10.435Z,38.58
2023-01-21T19:55:40.056Z,34.38
2023-01-21T19:58:17.697Z,34.50
2023-01-21T20:00:45.245Z,34.65
2023-01-21T20:03:13.672Z,34.85
2023-01-21T20:05:41.287Z,34.80
2023-01-21T20:08:12.203Z,38.25
2023-01-21T20:10:41.912Z,35.25
2023-01-21T20:13:12.759Z,40.25
2023-01-21T20:15:42.196Z,35.28
2023-01-21T20:18:18.222Z,35.30
2023-01-21T20:20:45.962Z,33.47
2023-01-21T20:23:15.258Z,31.50
2023-01-21T20:25:45.972Z,39.97
2023-01-21T20:28:19.190Z,31.38
2023-01-21T20:30:47.308Z,33.63
2023-01-21T20:33:16.271Z,41.05
2023-01-21T20:35:44.963Z,34.33
2023-01-21T20:38:14.650Z,34.28
2023-01-21T20:40:43.885Z,41.78
2023-01-21T20:43:11.516Z,32.10
2023-01-21T20:45:42.724Z,37.92
2023-01-21T20:48:18.974Z,38.58
2023-01-21T20:50:46.586Z,31.48
2023-01-21T20:53:14.144Z,35.10
2023-01-21T20:55:45.810Z,35.25
2023-01-21T20:58:14.418Z,33.90
2023-01-21T21:00:43.595Z,37.00
2023-01-21T21:03:11.758Z,35.42
2023-01-21T21:05:39.299Z,31.10
2023-01-21T21:08:06.805Z,32.58
2023-01-21T21:10:36.219Z,35.08
2023-01-21T21:13:05.969Z,34.55
2023-01-21T21:15:35.063Z,37.55
2023-01-21T21:18:03.739Z,34.25
2023-01-21T21:20:32.705Z,40.42
2023-01-21T21:23:00.233Z,33.42
2023-01-21T21:25:29.497Z,32.25
2023-01-21T21:27:57.099Z,37.80
2023-01-21T21:30:28.112Z,31.45
2023-01-21T21:32:57.867Z,35.55
2023-01-21T21:35:27.592Z,34.80
2023-01-21T21:37:56.572Z,32.75
2023-01-21T21:40:27.037Z,31.83
2023-01-21T21:43:13.445Z,29.45
2023-01-21T21:46:02.356Z,31.52
2023-01-21T21:48:39.162Z,35.25
2023-01-21T21:51:07.410Z,33.22
2023-01-21T21:53:35.012Z,31.73
2023-01-21T21:56:03.955Z,35.22
2023-01-21T21:58:31.438Z,35.90
2023-01-21T22:01:09.515Z,32.33
2023-01-21T22:03:37.349Z,33.40
2023-01-21T22:06:05.518Z,31.73
2023-01-21T22:08:33.856Z,27.98
2023-01-21T22:11:02.099Z,27.80
2023-01-21T22:13:29.747Z,28.23
2023-01-21T22:15:58.213Z,35.35
2023-01-21T22:18:28.248Z,32.70
2023-01-21T22:21:00.540Z,26.90
2023-01-21T22:23:29.871Z,31.98
2023-01-21T22:25:57.597Z,32.30
2023-01-21T22:28:25.153Z,31.98
2023-01-21T22:30:52.835Z,28.15
2023-01-21T22:33:22.065Z,33.17
2023-01-21T22:35:50.883Z,29.33
2023-01-21T22:38:19.345Z,32.67
2023-01-21T22:40:53.588Z,37.15
2023-01-21T22:43:21.767Z,30.85
2023-01-21T22:45:50.159Z,36.10
2023-01-21T22:48:18.504Z,31.70
2023-01-21T22:50:46.035Z,31.25
2023-01-21T22:53:14.954Z,27.92
2023-01-21T22:55:42.408Z,30.60
2023-01-21T22:58:09.907Z,33.58
2023-01-21T23:00:39.008Z,32.78
2023-01-21T23:03:07.390Z,30.70
2023-01-21T23:05:36.083Z,30.02
2023-01-21T23:08:03.691Z,29.77
2023-01-21T23:10:32.556Z,30.33
2023-01-21T23:13:00.046Z,31.35
2023-01-21T23:15:27.814Z,28.65
2023-01-21T23:17:55.496Z,27.02
2023-01-21T23:20:25.141Z,26.70
2023-01-21T23:22:52.636Z,29.27
2023-01-21T23:25:20.228Z,29.90
2023-01-21T23:27:49.035Z,29.92
2023-01-21T23:30:17.789Z,29.40
2023-01-21T23:32:45.574Z,32.45
2023-01-21T23:35:13.228Z,30.73
2023-01-21T23:37:40.749Z,30.83
2023-01-21T23:40:09.602Z,32.03
2023-01-21T23:42:37.073Z,32.58
2023-01-21T23:45:06.374Z,31.17
2023-01-21T23:47:33.829Z,31.70
2023-01-21T23:50:01.330Z,32.15
2023-01-21T23:52:28.789Z,27.88
2023-01-21T23:54:56.306Z,34.10
2023-01-21T23:57:23.768Z,27.75
2023-01-21T23:59:51.267Z,32.80
